KDMN

Details ICAO KDMN
Name DEMING MUNI
Region United States
Timezone America/Denver (UTC-7.0)
Plans Departing 3
Arriving 7
Stats Elevation 4,314 ft / 1,315 m (AMSL)
Location 32.262241° -107.720885°
Runways 2
Magnetic Variation 8.685° E
Sunrise 2017-12-17 14:07:23 UTC / 2017-12-17 07:07:23 Local
Sunset 2017-12-18 00:09:39 UTC / 2017-12-17 17:09:39 Local
Advertisement - Login to hide

Runways

ID Width Length Bearing (true) Bearing (mag) Surface Threshold Offset Overrun Length
04 60 ft / 18 m 5,674 ft / 1,729 m 51.44° 42.76° Asphalt 0 ft / 0 m 0 ft / 0 m
08 75 ft / 23 m 6,615 ft / 2,016 m 89.73° 81.05° Asphalt 0 ft / 0 m 0 ft / 0 m
22 60 ft / 18 m 5,674 ft / 1,729 m 231.44° 222.76° Asphalt 0 ft / 0 m 0 ft / 0 m
26 75 ft / 23 m 6,615 ft / 2,016 m 269.74° 261.06° Asphalt 0 ft / 0 m 0 ft / 0 m

Map

Weather


0- 5 10 15 20 25 30 35+ Temperature / ° C

Clouds and Precipitation
Forecast for 2017-12-17 12:00 UTC. Updated an hour ago

Ground ~20,000 ft ~40,000 ft Winds

METAR

KDMN 170953Z AUTO 00000KT 10SM CLR 01/M09 A2994 RMK AO2 SLP116 T00111094

TAF

KDMN 170534Z 1706/1806 24007KT P6SM FEW150 BKN250 FM171100 04007KT P6SM VCSH BKN070 OVC100 FM171800 08008KT P6SM SHRA BKN050 OVC100 FM180400 07012KT P6SM -SHRA BKN050 OVC120

Frequencies

Recorded 118.52 MHz ASOS
Unicom 122.80 MHz CTAF/UNICOM
Warning: Do not use this data for real-world aviation or navigation. No guarantee of current accuracy is given.